createdAt,value
2018-07-09T00:01:04.258Z,3.90
2018-07-09T00:03:32.943Z,3.50
2018-07-09T00:06:01.685Z,3.80
2018-07-09T00:08:30.571Z,4.73
2018-07-09T00:11:00.501Z,4.37
2018-07-09T00:13:30.243Z,4.43
2018-07-09T00:15:59.415Z,3.77
2018-07-09T00:18:28.217Z,4.23
2018-07-09T00:20:56.995Z,4.30
2018-07-09T00:23:25.760Z,4.30
2018-07-09T00:25:55.073Z,4.47
2018-07-09T00:28:24.594Z,4.33
2018-07-09T00:30:53.448Z,3.80
2018-07-09T00:33:22.349Z,4.80
2018-07-09T00:35:51.164Z,4.40
2018-07-09T00:38:20.479Z,4.37
2018-07-09T00:40:49.245Z,4.20
2018-07-09T00:43:18.008Z,4.67
2018-07-09T00:45:46.788Z,4.40
2018-07-09T00:48:15.580Z,4.43
2018-07-09T00:50:44.143Z,4.07
2018-07-09T00:53:12.830Z,3.83
2018-07-09T00:55:41.595Z,4.47
2018-07-09T00:58:10.435Z,4.77
2018-07-09T01:00:39.035Z,4.33
2018-07-09T01:03:08.534Z,4.43
2018-07-09T01:05:37.392Z,4.67
2018-07-09T01:08:06.192Z,4.60
2018-07-09T01:10:45.315Z,4.27
2018-07-09T01:13:14.036Z,4.87
2018-07-09T01:15:42.814Z,4.40
2018-07-09T01:18:11.624Z,4.27
2018-07-09T01:20:40.488Z,4.90
2018-07-09T01:23:09.098Z,4.73
2018-07-09T01:25:37.775Z,4.50
2018-07-09T01:28:06.360Z,4.93
2018-07-09T01:30:34.918Z,4.80
2018-07-09T01:33:03.605Z,5.33
2018-07-09T01:35:32.336Z,5.17
2018-07-09T01:38:01.083Z,4.90
2018-07-09T01:40:29.698Z,5.27
2018-07-09T01:42:58.164Z,5.10
2018-07-09T01:45:26.915Z,4.77
2018-07-09T01:47:55.701Z,4.60
2018-07-09T01:50:24.434Z,5.43
2018-07-09T01:52:53.038Z,4.80
2018-07-09T01:55:21.679Z,5.23
2018-07-09T01:57:50.591Z,5.23
2018-07-09T02:00:19.160Z,4.80
2018-07-09T02:02:47.871Z,4.93
2018-07-09T02:05:16.624Z,4.93
2018-07-09T02:07:45.968Z,5.20
2018-07-09T02:10:14.723Z,5.00
2018-07-09T02:12:43.410Z,5.20
2018-07-09T02:15:12.047Z,5.67
2018-07-09T02:17:40.784Z,5.23
2018-07-09T02:20:09.609Z,4.97
2018-07-09T02:22:38.645Z,5.20
2018-07-09T02:25:07.486Z,5.50
2018-07-09T02:27:36.326Z,5.30
2018-07-09T02:30:05.137Z,4.70
2018-07-09T02:32:33.947Z,4.73
2018-07-09T02:35:02.676Z,4.87
2018-07-09T02:37:31.487Z,5.60
2018-07-09T02:40:00.268Z,5.40
2018-07-09T02:42:29.170Z,5.40
2018-07-09T02:44:58.024Z,5.00
2018-07-09T02:47:26.893Z,5.07
2018-07-09T02:49:55.668Z,5.60
2018-07-09T02:52:24.402Z,5.73
2018-07-09T02:54:53.224Z,5.53
2018-07-09T02:57:22.060Z,5.53
2018-07-09T02:59:50.823Z,5.40
2018-07-09T03:02:19.576Z,5.83
2018-07-09T03:04:48.344Z,5.37
2018-07-09T03:07:17.161Z,5.90
2018-07-09T03:09:45.911Z,6.03
2018-07-09T03:12:14.725Z,6.30
2018-07-09T03:14:43.450Z,5.80
2018-07-09T03:17:12.322Z,5.93
2018-07-09T03:19:41.058Z,5.80
2018-07-09T03:22:09.840Z,5.83
2018-07-09T03:24:38.750Z,5.93
2018-07-09T03:27:07.491Z,6.27
2018-07-09T03:29:36.373Z,5.97
2018-07-09T03:32:05.419Z,6.03
2018-07-09T03:34:34.489Z,5.07
2018-07-09T03:37:03.333Z,5.10
2018-07-09T03:39:32.068Z,4.97
2018-07-09T03:42:00.824Z,5.10
2018-07-09T03:44:29.579Z,4.87
2018-07-09T03:46:58.405Z,5.40
2018-07-09T03:49:27.202Z,5.50
2018-07-09T03:51:56.042Z,5.30
2018-07-09T03:54:24.775Z,4.80
2018-07-09T03:56:53.566Z,4.50
2018-07-09T03:59:22.423Z,4.73
2018-07-09T04:01:51.196Z,4.70
2018-07-09T04:04:20.122Z,4.50
2018-07-09T04:06:48.913Z,4.20
2018-07-09T04:09:17.734Z,4.67
2018-07-09T04:11:46.516Z,4.10
2018-07-09T04:14:15.338Z,4.67
2018-07-09T04:16:44.115Z,4.17
2018-07-09T04:19:12.951Z,3.83
2018-07-09T04:21:41.708Z,4.20
2018-07-09T04:24:10.500Z,4.77
2018-07-09T04:26:39.608Z,4.70
2018-07-09T04:29:08.471Z,4.40
2018-07-09T04:31:37.285Z,4.93
2018-07-09T04:34:06.405Z,5.17
2018-07-09T04:36:35.185Z,4.73
2018-07-09T04:39:05.655Z,5.40
2018-07-09T04:41:34.576Z,5.03
2018-07-09T04:44:03.310Z,5.77
2018-07-09T04:46:32.367Z,6.47
2018-07-09T04:49:01.483Z,6.13
2018-07-09T04:51:30.383Z,6.80
2018-07-09T04:53:59.632Z,4.90
2018-07-09T04:56:28.661Z,5.37
2018-07-09T04:58:57.386Z,5.10
2018-07-09T05:01:26.269Z,5.57
2018-07-09T05:03:55.139Z,5.77
2018-07-09T05:06:23.941Z,5.10
2018-07-09T05:08:52.997Z,4.90
2018-07-09T05:11:21.762Z,5.37
2018-07-09T05:13:50.716Z,4.80
2018-07-09T05:16:19.572Z,4.57
2018-07-09T05:18:48.468Z,4.60
2018-07-09T05:21:17.279Z,5.93
2018-07-09T05:23:46.162Z,4.37
2018-07-09T05:26:15.067Z,4.90
2018-07-09T05:28:43.916Z,4.53
2018-07-09T05:31:12.881Z,4.47
2018-07-09T05:33:41.791Z,5.00
2018-07-09T05:36:10.587Z,4.90
2018-07-09T05:38:39.354Z,5.47
2018-07-09T05:41:08.188Z,4.53
2018-07-09T05:43:37.582Z,4.77
2018-07-09T05:46:07.055Z,4.13
2018-07-09T05:48:36.131Z,4.67
2018-07-09T05:51:05.032Z,4.37
2018-07-09T05:53:33.774Z,4.30
2018-07-09T05:56:02.427Z,4.53
2018-07-09T05:58:31.156Z,4.20
2018-07-09T06:01:00.119Z,4.20
2018-07-09T06:03:29.021Z,5.00
2018-07-09T06:05:57.858Z,7.00
2018-07-09T06:08:26.633Z,10.00
2018-07-09T06:10:55.403Z,4.87
2018-07-09T06:13:24.259Z,4.50
2018-07-09T06:15:53.046Z,4.20
2018-07-09T06:18:21.862Z,4.73
2018-07-09T06:20:50.628Z,4.90
2018-07-09T06:23:19.431Z,4.67
2018-07-09T06:25:48.300Z,4.30
2018-07-09T06:28:17.089Z,4.03
2018-07-09T06:30:45.825Z,4.63
2018-07-09T06:33:14.638Z,4.87
2018-07-09T06:35:43.194Z,4.30
2018-07-09T06:38:11.922Z,4.20
2018-07-09T06:40:40.559Z,6.40
2018-07-09T06:43:09.168Z,4.17
2018-07-09T06:45:44.719Z,3.77
2018-07-09T06:48:13.536Z,4.43
2018-07-09T06:50:42.167Z,3.73
2018-07-09T06:53:10.810Z,3.80
2018-07-09T06:55:39.623Z,3.60
2018-07-09T06:58:08.631Z,4.07
2018-07-09T07:00:37.384Z,4.07
2018-07-09T07:03:06.148Z,3.77
2018-07-09T07:05:34.928Z,3.93
2018-07-09T07:08:03.772Z,3.50
2018-07-09T07:10:32.572Z,3.53
2018-07-09T07:13:01.340Z,3.30
2018-07-09T07:15:30.096Z,3.90
2018-07-09T07:17:58.891Z,3.57
2018-07-09T07:20:27.702Z,3.53
2018-07-09T07:22:56.588Z,3.47
2018-07-09T07:25:25.323Z,5.53
2018-07-09T07:27:54.191Z,3.93
2018-07-09T07:30:22.945Z,3.47
2018-07-09T07:32:51.589Z,4.07
2018-07-09T07:35:20.230Z,3.50
2018-07-09T07:37:49.001Z,3.70
2018-07-09T07:40:17.576Z,4.43
2018-07-09T07:42:46.193Z,4.03
2018-07-09T07:45:14.967Z,4.27
2018-07-09T07:47:43.739Z,3.80
2018-07-09T07:50:12.422Z,3.30
2018-07-09T07:52:41.179Z,3.13
2018-07-09T07:55:09.927Z,3.20
2018-07-09T07:57:38.775Z,3.03
2018-07-09T08:00:08.218Z,3.00
2018-07-09T08:02:37.016Z,3.70
2018-07-09T08:05:06.022Z,3.47
2018-07-09T08:07:35.505Z,3.53
2018-07-09T08:10:05.079Z,3.00
2018-07-09T08:13:33.252Z,3.03
2018-07-09T08:15:02.731Z,3.27
2018-07-09T08:17:31.499Z,2.90
2018-07-09T08:20:00.260Z,3.37
2018-07-09T08:22:28.996Z,3.00
2018-07-09T08:24:57.723Z,3.20
2018-07-09T08:27:26.520Z,3.83
2018-07-09T08:29:55.076Z,3.33
2018-07-09T08:32:23.929Z,3.33
2018-07-09T08:34:52.900Z,3.40
2018-07-09T08:37:21.668Z,3.70
2018-07-09T08:39:50.235Z,3.60
2018-07-09T08:42:18.850Z,3.87
2018-07-09T08:44:47.631Z,3.97
2018-07-09T08:47:16.359Z,3.30
2018-07-09T08:49:45.103Z,3.63
2018-07-09T08:52:13.660Z,5.80
2018-07-09T08:54:42.329Z,3.50
2018-07-09T08:57:11.077Z,3.37
2018-07-09T08:59:39.836Z,2.77
2018-07-09T09:02:08.673Z,2.90
2018-07-09T09:04:37.492Z,2.87
2018-07-09T09:07:06.261Z,3.10
2018-07-09T09:09:34.983Z,3.10
2018-07-09T09:12:03.776Z,2.27
2018-07-09T09:14:32.502Z,2.40
2018-07-09T09:17:01.239Z,2.10
2018-07-09T09:19:30.164Z,2.20
2018-07-09T09:21:58.738Z,2.20
2018-07-09T09:24:27.348Z,2.10
2018-07-09T09:26:56.230Z,1.80
2018-07-09T09:29:24.988Z,2.10
2018-07-09T09:31:53.744Z,1.90
2018-07-09T09:34:22.522Z,1.93
2018-07-09T09:36:51.271Z,2.20
2018-07-09T09:39:19.930Z,2.20
2018-07-09T09:41:48.550Z,1.93
2018-07-09T09:44:17.305Z,2.07
2018-07-09T09:46:46.021Z,2.10
2018-07-09T09:49:14.807Z,1.90
2018-07-09T09:51:43.537Z,2.20
2018-07-09T09:54:12.266Z,1.67
2018-07-09T09:56:40.997Z,2.00
2018-07-09T09:59:09.768Z,2.00
2018-07-09T10:01:38.336Z,2.00
2018-07-09T10:04:06.970Z,2.20
2018-07-09T10:06:35.727Z,2.40
2018-07-09T10:09:05.535Z,2.70
2018-07-09T10:11:34.118Z,2.20
2018-07-09T10:14:02.782Z,2.47
2018-07-09T10:16:31.544Z,2.17
2018-07-09T10:19:00.563Z,2.10
2018-07-09T10:21:29.452Z,2.77
2018-07-09T10:23:58.230Z,2.60
2018-07-09T10:26:26.942Z,2.40
2018-07-09T10:28:55.526Z,2.63
2018-07-09T10:31:24.131Z,2.60
2018-07-09T10:33:52.713Z,2.13
2018-07-09T10:36:21.361Z,3.00
2018-07-09T10:38:50.111Z,4.60
2018-07-09T10:41:18.863Z,2.70
2018-07-09T10:43:47.446Z,2.83
2018-07-09T10:46:16.065Z,2.30
2018-07-09T10:48:44.955Z,2.37
2018-07-09T10:51:13.712Z,4.70
2018-07-09T10:53:42.283Z,2.77
2018-07-09T10:56:10.920Z,2.60
2018-07-09T10:58:39.724Z,2.57
2018-07-09T11:01:08.439Z,2.40
2018-07-09T11:03:37.245Z,2.30
2018-07-09T11:06:05.939Z,2.37
2018-07-09T11:08:34.574Z,2.90
2018-07-09T11:11:04.216Z,2.43
2018-07-09T11:13:32.961Z,2.40
2018-07-09T11:16:01.720Z,3.20
2018-07-09T11:18:30.455Z,2.53
2018-07-09T11:20:59.223Z,2.67
2018-07-09T11:23:27.936Z,2.57
2018-07-09T11:25:56.883Z,3.13
2018-07-09T11:28:25.605Z,3.97
2018-07-09T11:30:54.350Z,2.47
2018-07-09T11:33:23.159Z,2.50
2018-07-09T11:35:51.943Z,2.73
2018-07-09T11:38:20.670Z,2.87
2018-07-09T11:40:49.420Z,2.97
2018-07-09T11:43:18.182Z,2.70
2018-07-09T11:45:46.787Z,2.67
2018-07-09T11:48:15.282Z,3.17
2018-07-09T11:50:43.932Z,3.73
2018-07-09T11:53:12.507Z,3.07
2018-07-09T11:55:41.121Z,2.60
2018-07-09T11:58:10.628Z,2.83
2018-07-09T12:00:39.424Z,2.90
2018-07-09T12:03:09.154Z,2.27
2018-07-09T12:05:37.919Z,3.43
2018-07-09T12:08:06.704Z,2.50
2018-07-09T12:10:36.199Z,3.07
2018-07-09T12:13:04.992Z,2.70
2018-07-09T12:15:33.815Z,2.90
2018-07-09T12:18:02.571Z,2.17
2018-07-09T12:20:31.359Z,3.27
2018-07-09T12:23:00.147Z,3.03
2018-07-09T12:25:28.960Z,2.97
2018-07-09T12:27:57.737Z,2.50
2018-07-09T12:30:26.547Z,2.93
2018-07-09T12:32:55.324Z,3.33
2018-07-09T12:35:24.059Z,2.73
2018-07-09T12:37:52.811Z,3.37
2018-07-09T12:40:21.567Z,2.97
2018-07-09T12:42:50.365Z,2.70
2018-07-09T12:45:19.074Z,2.47
2018-07-09T12:47:47.977Z,2.60
2018-07-09T12:50:16.695Z,2.53
2018-07-09T12:52:45.459Z,2.90
2018-07-09T12:55:14.256Z,2.80
2018-07-09T12:57:43.060Z,2.90
2018-07-09T13:00:11.800Z,3.10
2018-07-09T13:02:40.564Z,3.10
2018-07-09T13:05:09.348Z,3.07
2018-07-09T13:07:38.011Z,2.77
2018-07-09T13:10:06.690Z,2.90
2018-07-09T13:12:36.234Z,2.30
2018-07-09T13:15:05.051Z,5.83
2018-07-09T13:17:34.010Z,3.03
2018-07-09T13:20:02.755Z,3.03
2018-07-09T13:22:31.521Z,3.03
2018-07-09T13:25:00.371Z,5.07
2018-07-09T13:27:29.115Z,3.13
2018-07-09T13:29:57.886Z,4.30
2018-07-09T13:32:26.664Z,3.30
2018-07-09T13:34:55.949Z,3.10
2018-07-09T13:37:24.853Z,3.00
2018-07-09T13:39:53.655Z,3.70
2018-07-09T13:42:22.387Z,5.60
2018-07-09T13:44:51.499Z,3.77
2018-07-09T13:47:20.516Z,3.20
2018-07-09T13:49:49.361Z,3.50
2018-07-09T13:52:18.115Z,3.50
2018-07-09T13:54:46.969Z,3.70
2018-07-09T13:57:15.710Z,3.90
2018-07-09T13:59:44.489Z,3.73
2018-07-09T14:02:13.363Z,3.70
2018-07-09T14:04:42.096Z,3.33
2018-07-09T14:07:10.833Z,3.40
2018-07-09T14:09:40.286Z,3.97
2018-07-09T14:12:09.031Z,3.40
2018-07-09T14:14:37.766Z,4.10
2018-07-09T14:17:06.696Z,3.80
2018-07-09T14:20:40.801Z,4.27
2018-07-09T14:23:10.651Z,4.03
2018-07-09T14:25:39.677Z,3.70
2018-07-09T14:28:08.899Z,3.63
2018-07-09T14:30:37.601Z,3.90
2018-07-09T14:33:06.813Z,3.70
2018-07-09T14:35:35.595Z,3.00
2018-07-09T14:38:05.280Z,3.67
2018-07-09T14:40:34.694Z,3.10
2018-07-09T14:43:03.286Z,3.07
2018-07-09T14:45:31.880Z,3.53
2018-07-09T14:48:00.612Z,3.30
2018-07-09T14:50:29.372Z,3.10
2018-07-09T14:52:58.175Z,3.03
2018-07-09T14:55:27.528Z,3.00
2018-07-09T14:57:56.094Z,3.00
2018-07-09T15:00:24.713Z,3.27
2018-07-09T15:02:53.499Z,3.30
2018-07-09T15:05:22.079Z,3.13
2018-07-09T15:07:50.684Z,3.40
2018-07-09T15:10:19.419Z,3.60
2018-07-09T15:12:48.225Z,3.73
2018-07-09T15:15:16.951Z,3.30
2018-07-09T15:17:45.780Z,3.20
2018-07-09T15:20:14.855Z,2.93
2018-07-09T15:22:43.579Z,3.37
2018-07-09T15:25:12.304Z,3.00
2018-07-09T15:27:41.039Z,3.70
2018-07-09T15:30:09.786Z,3.30
2018-07-09T15:32:38.502Z,3.57
2018-07-09T15:35:07.409Z,3.00
2018-07-09T15:37:36.150Z,3.10
2018-07-09T15:40:04.912Z,2.87
2018-07-09T15:42:33.520Z,2.63
2018-07-09T15:45:02.109Z,2.70
2018-07-09T15:47:30.859Z,2.63
2018-07-09T15:49:59.626Z,2.87
2018-07-09T15:52:28.419Z,3.20
2018-07-09T15:54:58.202Z,3.13
2018-07-09T15:57:26.944Z,3.17
2018-07-09T15:59:55.495Z,2.60
2018-07-09T16:02:24.110Z,2.90
2018-07-09T16:04:52.690Z,3.70
2018-07-09T16:07:21.329Z,2.90
2018-07-09T16:09:50.059Z,3.30
2018-07-09T16:12:18.654Z,2.80
2018-07-09T16:14:47.251Z,2.93
2018-07-09T16:17:16.032Z,6.03
2018-07-09T16:19:44.804Z,3.27
2018-07-09T16:22:13.354Z,3.07
2018-07-09T16:24:41.965Z,3.50
2018-07-09T16:27:10.715Z,2.90
2018-07-09T16:29:39.488Z,3.47
2018-07-09T16:32:08.278Z,3.37
2018-07-09T16:34:37.015Z,3.10
2018-07-09T16:37:05.664Z,3.10
2018-07-09T16:39:34.325Z,3.10
2018-07-09T16:42:02.886Z,3.50
2018-07-09T16:44:31.518Z,3.00
2018-07-09T16:47:00.324Z,2.90
2018-07-09T16:49:29.056Z,3.27
2018-07-09T16:51:57.776Z,3.40
2018-07-09T16:54:26.541Z,2.90
2018-07-09T16:56:55.330Z,4.30
2018-07-09T16:59:24.048Z,4.40
2018-07-09T17:01:52.806Z,2.93
2018-07-09T17:04:21.593Z,3.03
2018-07-09T17:06:50.396Z,7.93
2018-07-09T17:09:19.131Z,3.33
2018-07-09T17:11:47.851Z,3.10
2018-07-09T17:14:16.463Z,2.97
2018-07-09T17:16:45.102Z,2.50
2018-07-09T17:19:13.864Z,2.80
2018-07-09T17:21:42.667Z,3.80
2018-07-09T17:24:11.437Z,3.87
2018-07-09T17:26:40.303Z,2.63
2018-07-09T17:29:08.951Z,3.33
2018-07-09T17:31:37.494Z,3.00
2018-07-09T17:34:06.148Z,3.17
2018-07-09T17:36:34.946Z,4.07
2018-07-09T17:39:03.765Z,2.63
2018-07-09T17:41:32.528Z,2.40
2018-07-09T17:44:01.241Z,2.60
2018-07-09T17:46:30.027Z,2.70
2018-07-09T17:48:58.760Z,2.77
2018-07-09T17:51:27.521Z,2.13
2018-07-09T17:53:56.283Z,2.30
2018-07-09T17:56:25.004Z,2.37
2018-07-09T17:58:53.795Z,2.40
2018-07-09T18:01:22.399Z,2.60
2018-07-09T18:03:51.052Z,2.50
2018-07-09T18:06:19.787Z,2.53
2018-07-09T18:08:48.552Z,1.97
2018-07-09T18:11:17.126Z,2.60
2018-07-09T18:13:45.746Z,2.30
2018-07-09T18:16:14.516Z,2.20
2018-07-09T18:18:43.060Z,2.00
2018-07-09T18:21:11.705Z,4.67
2018-07-09T18:23:40.508Z,2.20
2018-07-09T18:26:09.251Z,2.17
2018-07-09T18:28:37.815Z,2.20
2018-07-09T18:31:06.440Z,2.00
2018-07-09T18:33:35.226Z,2.10
2018-07-09T18:36:04.055Z,2.47
2018-07-09T18:38:32.797Z,2.87
2018-07-09T18:41:01.359Z,2.00
2018-07-09T18:43:29.964Z,1.90
2018-07-09T18:45:58.522Z,2.00
2018-07-09T18:48:27.204Z,2.10
2018-07-09T18:50:56.167Z,2.30
2018-07-09T18:53:25.103Z,1.80
2018-07-09T18:55:53.727Z,1.90
2018-07-09T18:58:22.854Z,2.30
2018-07-09T19:00:51.539Z,3.73
2018-07-09T19:03:20.305Z,2.07
2018-07-09T19:06:31.217Z,1.90
2018-07-09T19:09:00.809Z,1.63
2018-07-09T19:11:29.680Z,1.90
2018-07-09T19:13:58.648Z,1.93
2018-07-09T19:16:27.383Z,1.70
2018-07-09T19:19:07.786Z,1.50
2018-07-09T19:21:42.358Z,1.43
2018-07-09T19:24:11.741Z,1.93
2018-07-09T19:26:40.296Z,1.70
2018-07-09T19:29:08.538Z,1.83
2018-07-09T19:31:36.335Z,2.23
2018-07-09T19:34:04.579Z,2.20
2018-07-09T19:36:32.671Z,1.73
2018-07-09T19:39:00.416Z,1.70
2018-07-09T19:41:28.436Z,1.70
2018-07-09T19:43:56.405Z,2.07
2018-07-09T19:46:24.679Z,1.80
2018-07-09T19:48:52.522Z,2.23
2018-07-09T19:51:20.542Z,2.10
2018-07-09T19:53:48.472Z,2.37
2018-07-09T19:56:16.356Z,2.07
2018-07-09T19:58:44.360Z,2.13
2018-07-09T20:01:12.323Z,1.67
2018-07-09T20:03:40.274Z,4.30
2018-07-09T20:06:08.159Z,2.00
2018-07-09T20:08:41.722Z,1.80
2018-07-09T20:11:14.963Z,2.10
2018-07-09T20:13:51.173Z,1.63
2018-07-09T20:16:25.000Z,2.17
2018-07-09T20:18:53.426Z,2.03
2018-07-09T20:21:21.179Z,2.20
2018-07-09T20:23:49.138Z,1.97
2018-07-09T20:26:17.045Z,1.70
2018-07-09T20:28:44.958Z,1.77
2018-07-09T20:31:12.873Z,2.10
2018-07-09T20:33:40.778Z,1.80
2018-07-09T20:36:08.940Z,1.90
2018-07-09T20:38:36.832Z,3.30
2018-07-09T20:41:04.790Z,2.70
2018-07-09T20:43:32.959Z,3.90
2018-07-09T20:46:00.754Z,4.03
2018-07-09T20:48:28.760Z,2.60
2018-07-09T20:50:56.710Z,2.13
2018-07-09T20:53:24.591Z,1.80
2018-07-09T20:55:52.501Z,1.83
2018-07-09T20:58:20.411Z,1.67
2018-07-09T21:00:48.322Z,2.00
2018-07-09T21:03:16.228Z,1.93
2018-07-09T21:05:44.135Z,2.40
2018-07-09T21:08:12.048Z,2.10
2018-07-09T21:10:40.251Z,3.80
2018-07-09T21:13:08.034Z,2.30
2018-07-09T21:15:35.964Z,5.50
2018-07-09T21:18:03.833Z,3.20
2018-07-09T21:20:32.159Z,2.10
2018-07-09T21:23:00.971Z,2.53
2018-07-09T21:25:28.882Z,2.20
2018-07-09T21:27:56.782Z,2.03
2018-07-09T21:30:24.752Z,2.43
2018-07-09T21:32:52.656Z,1.90
2018-07-09T21:35:20.863Z,3.93
2018-07-09T21:37:48.840Z,2.40
2018-07-09T21:40:16.552Z,2.00
2018-07-09T21:42:44.623Z,1.90
2018-07-09T21:45:12.550Z,2.10
2018-07-09T21:47:40.535Z,3.87
2018-07-09T21:50:08.451Z,3.73
2018-07-09T21:52:36.445Z,2.10
2018-07-09T21:55:04.574Z,1.67
2018-07-09T21:57:32.503Z,1.90
2018-07-09T22:00:00.471Z,1.70
2018-07-09T22:02:28.418Z,1.77
2018-07-09T22:04:56.324Z,1.90
2018-07-09T22:07:24.258Z,1.80
2018-07-09T22:09:52.163Z,1.90
2018-07-09T22:12:20.118Z,2.13
2018-07-09T22:14:48.026Z,3.90
2018-07-09T22:17:16.025Z,4.97
2018-07-09T22:19:43.978Z,2.40
2018-07-09T22:22:12.298Z,1.70
2018-07-09T22:24:40.136Z,2.30
2018-07-09T22:27:07.986Z,2.20
2018-07-09T22:29:35.936Z,2.40
2018-07-09T22:32:04.740Z,2.00
2018-07-09T22:34:33.661Z,2.60
2018-07-09T22:37:02.732Z,3.00
2018-07-09T22:39:31.402Z,5.30
2018-07-09T22:42:00.017Z,2.40
2018-07-09T22:44:28.599Z,2.33
2018-07-09T22:46:57.267Z,2.10
2018-07-09T22:49:25.862Z,2.13
2018-07-09T22:51:54.527Z,2.03
2018-07-09T22:54:23.349Z,2.00
2018-07-09T22:56:52.164Z,2.13
2018-07-09T22:59:20.912Z,2.27
2018-07-09T23:01:49.862Z,2.00
2018-07-09T23:04:18.740Z,2.50
2018-07-09T23:06:47.484Z,2.13
2018-07-09T23:10:20.992Z,2.60
2018-07-09T23:16:43.635Z,3.60
2018-07-09T23:19:27.823Z,1.90
2018-07-09T23:22:19.702Z,2.33
2018-07-09T23:24:47.674Z,2.20
2018-07-09T23:27:15.619Z,2.73
2018-07-09T23:29:43.546Z,2.00
2018-07-09T23:32:11.535Z,3.00
2018-07-09T23:34:39.508Z,1.90
2018-07-09T23:37:07.451Z,2.10
2018-07-09T23:39:35.348Z,3.30
2018-07-09T23:42:03.354Z,2.70
2018-07-09T23:44:31.247Z,6.17
2018-07-09T23:46:59.500Z,2.43
2018-07-09T23:49:27.321Z,2.30
2018-07-09T23:51:55.297Z,3.63
2018-07-09T23:54:23.196Z,2.33
2018-07-09T23:59:22.323Z,2.60
